sensor_id;sensor_type;location;lat;lon;timestamp;temperature;humidity
55836;DHT22;66908;50.988;4.780;2023-03-02T00:01:32;0.50;74.50
55836;DHT22;66908;50.988;4.780;2023-03-02T00:04:00;0.10;76.90
55836;DHT22;66908;50.988;4.780;2023-03-02T00:06:30;0.20;78.40
55836;DHT22;66908;50.988;4.780;2023-03-02T00:08:57;0.50;76.80
55836;DHT22;66908;50.988;4.780;2023-03-02T00:11:30;0.60;74.50
55836;DHT22;66908;50.988;4.780;2023-03-02T00:13:57;0.80;74.10
55836;DHT22;66908;50.988;4.780;2023-03-02T00:16:23;0.90;76.30
55836;DHT22;66908;50.988;4.780;2023-03-02T00:18:48;0.80;73.40
55836;DHT22;66908;50.988;4.780;2023-03-02T00:21:14;0.80;73.50
55836;DHT22;66908;50.988;4.780;2023-03-02T00:23:40;0.60;74.50
55836;DHT22;66908;50.988;4.780;2023-03-02T00:26:06;0.30;75.60
55836;DHT22;66908;50.988;4.780;2023-03-02T00:28:33;0.20;76.30
55836;DHT22;66908;50.988;4.780;2023-03-02T00:31:02;-0.10;77.60
55836;DHT22;66908;50.988;4.780;2023-03-02T00:33:28;-0.40;80.00
55836;DHT22;66908;50.988;4.780;2023-03-02T00:35:54;-0.70;80.60
55836;DHT22;66908;50.988;4.780;2023-03-02T00:38:20;-0.70;81.00
55836;DHT22;66908;50.988;4.780;2023-03-02T00:40:47;-0.60;80.60
55836;DHT22;66908;50.988;4.780;2023-03-02T00:43:14;-0.50;80.10
55836;DHT22;66908;50.988;4.780;2023-03-02T00:45:40;-0.20;78.80
55836;DHT22;66908;50.988;4.780;2023-03-02T00:48:06;-0.20;78.80
55836;DHT22;66908;50.988;4.780;2023-03-02T00:50:33;-0.10;78.50
55836;DHT22;66908;50.988;4.780;2023-03-02T00:53:08;0.20;78.80
55836;DHT22;66908;50.988;4.780;2023-03-02T00:55:35;0.40;77.80
55836;DHT22;66908;50.988;4.780;2023-03-02T00:58:01;0.50;76.90
55836;DHT22;66908;50.988;4.780;2023-03-02T01:00:27;0.60;76.80
55836;DHT22;66908;50.988;4.780;2023-03-02T01:02:54;0.50;77.90
55836;DHT22;66908;50.988;4.780;2023-03-02T01:05:20;0.60;77.30
55836;DHT22;66908;50.988;4.780;2023-03-02T01:07:46;0.60;76.70
55836;DHT22;66908;50.988;4.780;2023-03-02T01:10:13;0.50;76.20
55836;DHT22;66908;50.988;4.780;2023-03-02T01:12:39;0.50;76.10
55836;DHT22;66908;50.988;4.780;2023-03-02T01:15:07;0.30;75.70
55836;DHT22;66908;50.988;4.780;2023-03-02T01:17:33;0.40;74.50
55836;DHT22;66908;50.988;4.780;2023-03-02T01:19:59;0.40;73.60
55836;DHT22;66908;50.988;4.780;2023-03-02T01:22:25;0.40;75.80
55836;DHT22;66908;50.988;4.780;2023-03-02T01:24:52;0.30;78.20
55836;DHT22;66908;50.988;4.780;2023-03-02T01:27:18;0.30;78.60
55836;DHT22;66908;50.988;4.780;2023-03-02T01:29:44;0.40;77.60
55836;DHT22;66908;50.988;4.780;2023-03-02T01:32:10;0.40;76.80
55836;DHT22;66908;50.988;4.780;2023-03-02T01:34:36;0.50;77.90
55836;DHT22;66908;50.988;4.780;2023-03-02T01:37:02;0.40;74.40
55836;DHT22;66908;50.988;4.780;2023-03-02T01:39:28;0.30;74.10
55836;DHT22;66908;50.988;4.780;2023-03-02T01:41:54;0.00;76.90
55836;DHT22;66908;50.988;4.780;2023-03-02T01:47:04;-0.30;78.60
55836;DHT22;66908;50.988;4.780;2023-03-02T01:49:33;-0.60;80.00
55836;DHT22;66908;50.988;4.780;2023-03-02T01:52:02;-0.50;80.70
55836;DHT22;66908;50.988;4.780;2023-03-02T01:54:27;-0.30;81.00
55836;DHT22;66908;50.988;4.780;2023-03-02T01:56:59;-0.20;80.20
55836;DHT22;66908;50.988;4.780;2023-03-02T01:59:29;-0.10;78.20
55836;DHT22;66908;50.988;4.780;2023-03-02T02:01:59;-0.40;78.90
55836;DHT22;66908;50.988;4.780;2023-03-02T02:04:26;-0.70;80.30
55836;DHT22;66908;50.988;4.780;2023-03-02T02:07:00;-0.60;80.80
55836;DHT22;66908;50.988;4.780;2023-03-02T02:09:29;-0.40;80.50
55836;DHT22;66908;50.988;4.780;2023-03-02T02:11:56;-0.40;79.50
55836;DHT22;66908;50.988;4.780;2023-03-02T02:14:23;-0.30;79.00
55836;DHT22;66908;50.988;4.780;2023-03-02T02:16:49;-0.50;80.00
55836;DHT22;66908;50.988;4.780;2023-03-02T02:22:03;-1.00;83.60
55836;DHT22;66908;50.988;4.780;2023-03-02T02:24:52;-1.00;83.10
55836;DHT22;66908;50.988;4.780;2023-03-02T02:27:22;-0.80;82.80
55836;DHT22;66908;50.988;4.780;2023-03-02T02:29:59;-0.50;81.40
55836;DHT22;66908;50.988;4.780;2023-03-02T02:32:27;-0.40;80.50
55836;DHT22;66908;50.988;4.780;2023-03-02T02:35:06;-0.70;81.00
55836;DHT22;66908;50.988;4.780;2023-03-02T02:37:36;-0.80;81.90
55836;DHT22;66908;50.988;4.780;2023-03-02T02:40:05;-0.60;81.50
55836;DHT22;66908;50.988;4.780;2023-03-02T02:42:37;-0.50;80.80
55836;DHT22;66908;50.988;4.780;2023-03-02T02:45:07;-0.40;80.70
55836;DHT22;66908;50.988;4.780;2023-03-02T02:47:41;-0.20;79.80
55836;DHT22;66908;50.988;4.780;2023-03-02T02:50:16;-0.10;79.10
55836;DHT22;66908;50.988;4.780;2023-03-02T02:52:44;-0.30;80.00
55836;DHT22;66908;50.988;4.780;2023-03-02T02:55:14;-0.50;80.80
55836;DHT22;66908;50.988;4.780;2023-03-02T02:57:42;-0.60;81.70
55836;DHT22;66908;50.988;4.780;2023-03-02T03:00:14;-0.50;81.40
55836;DHT22;66908;50.988;4.780;2023-03-02T03:02:44;-0.30;80.30
55836;DHT22;66908;50.988;4.780;2023-03-02T03:05:16;-0.10;79.80
55836;DHT22;66908;50.988;4.780;2023-03-02T03:07:42;0.00;79.00
55836;DHT22;66908;50.988;4.780;2023-03-02T03:10:29;0.10;78.30
55836;DHT22;66908;50.988;4.780;2023-03-02T03:12:59;0.00;78.60
55836;DHT22;66908;50.988;4.780;2023-03-02T03:15:26;-0.10;79.10
55836;DHT22;66908;50.988;4.780;2023-03-02T03:17:56;-0.50;80.50
55836;DHT22;66908;50.988;4.780;2023-03-02T03:20:24;-0.70;81.80
55836;DHT22;66908;50.988;4.780;2023-03-02T03:22:51;-0.90;83.40
55836;DHT22;66908;50.988;4.780;2023-03-02T03:25:23;-1.10;84.10
55836;DHT22;66908;50.988;4.780;2023-03-02T03:27:49;-0.90;83.60
55836;DHT22;66908;50.988;4.780;2023-03-02T03:30:16;-0.80;83.10
55836;DHT22;66908;50.988;4.780;2023-03-02T03:32:42;-0.50;81.90
55836;DHT22;66908;50.988;4.780;2023-03-02T03:35:08;-0.50;81.50
55836;DHT22;66908;50.988;4.780;2023-03-02T03:37:36;-0.30;81.00
55836;DHT22;66908;50.988;4.780;2023-03-02T03:40:03;-0.10;80.00
55836;DHT22;66908;50.988;4.780;2023-03-02T03:42:30;0.20;78.60
55836;DHT22;66908;50.988;4.780;2023-03-02T03:44:57;0.30;77.90
55836;DHT22;66908;50.988;4.780;2023-03-02T03:47:23;0.30;77.80
55836;DHT22;66908;50.988;4.780;2023-03-02T03:49:49;0.30;78.00
55836;DHT22;66908;50.988;4.780;2023-03-02T03:52:15;0.10;78.50
55836;DHT22;66908;50.988;4.780;2023-03-02T03:54:41;0.10;78.50
55836;DHT22;66908;50.988;4.780;2023-03-02T03:57:06;-0.10;79.20
55836;DHT22;66908;50.988;4.780;2023-03-02T03:59:32;-0.40;80.40
55836;DHT22;66908;50.988;4.780;2023-03-02T04:02:00;-0.50;81.10
55836;DHT22;66908;50.988;4.780;2023-03-02T04:04:30;-0.50;81.40
55836;DHT22;66908;50.988;4.780;2023-03-02T04:06:57;-0.50;81.50
55836;DHT22;66908;50.988;4.780;2023-03-02T04:09:23;-0.60;81.60
55836;DHT22;66908;50.988;4.780;2023-03-02T04:11:51;-0.50;81.50
55836;DHT22;66908;50.988;4.780;2023-03-02T04:14:19;-0.60;82.00
55836;DHT22;66908;50.988;4.780;2023-03-02T04:16:45;-0.30;81.10
55836;DHT22;66908;50.988;4.780;2023-03-02T04:19:11;-0.20;80.30
55836;DHT22;66908;50.988;4.780;2023-03-02T04:21:39;0.00;79.70
55836;DHT22;66908;50.988;4.780;2023-03-02T04:24:07;0.00;79.40
55836;DHT22;66908;50.988;4.780;2023-03-02T04:26:34;0.20;79.00
55836;DHT22;66908;50.988;4.780;2023-03-02T04:29:01;0.10;79.10
55836;DHT22;66908;50.988;4.780;2023-03-02T04:31:27;0.20;78.80
55836;DHT22;66908;50.988;4.780;2023-03-02T04:33:53;0.20;78.40
55836;DHT22;66908;50.988;4.780;2023-03-02T04:36:19;0.30;77.90
55836;DHT22;66908;50.988;4.780;2023-03-02T04:38:46;0.40;77.90
55836;DHT22;66908;50.988;4.780;2023-03-02T04:41:12;0.50;77.20
55836;DHT22;66908;50.988;4.780;2023-03-02T04:43:37;0.40;77.40
55836;DHT22;66908;50.988;4.780;2023-03-02T04:46:03;0.30;78.80
55836;DHT22;66908;50.988;4.780;2023-03-02T04:48:29;0.20;78.20
55836;DHT22;66908;50.988;4.780;2023-03-02T04:50:55;0.00;78.70
55836;DHT22;66908;50.988;4.780;2023-03-02T04:53:21;-0.10;79.20
55836;DHT22;66908;50.988;4.780;2023-03-02T04:55:47;0.10;79.00
55836;DHT22;66908;50.988;4.780;2023-03-02T04:58:13;0.00;79.20
55836;DHT22;66908;50.988;4.780;2023-03-02T05:00:39;0.00;79.50
55836;DHT22;66908;50.988;4.780;2023-03-02T05:03:05;-0.10;79.40
55836;DHT22;66908;50.988;4.780;2023-03-02T05:05:31;-0.30;81.00
55836;DHT22;66908;50.988;4.780;2023-03-02T05:07:58;-0.50;81.30
55836;DHT22;66908;50.988;4.780;2023-03-02T05:10:25;-0.60;82.40
55836;DHT22;66908;50.988;4.780;2023-03-02T05:12:52;-0.50;81.20
55836;DHT22;66908;50.988;4.780;2023-03-02T05:15:34;-0.30;80.50
55836;DHT22;66908;50.988;4.780;2023-03-02T05:18:00;-0.10;80.00
55836;DHT22;66908;50.988;4.780;2023-03-02T05:20:26;0.00;79.90
55836;DHT22;66908;50.988;4.780;2023-03-02T05:23:03;-0.20;79.90
55836;DHT22;66908;50.988;4.780;2023-03-02T05:25:32;-0.30;80.40
55836;DHT22;66908;50.988;4.780;2023-03-02T05:27:58;-0.40;80.80
55836;DHT22;66908;50.988;4.780;2023-03-02T05:30:24;-0.30;80.50
55836;DHT22;66908;50.988;4.780;2023-03-02T05:32:50;-0.50;81.70
55836;DHT22;66908;50.988;4.780;2023-03-02T05:35:17;-0.30;81.10
55836;DHT22;66908;50.988;4.780;2023-03-02T05:37:43;-0.30;81.10
55836;DHT22;66908;50.988;4.780;2023-03-02T05:40:12;-0.30;80.70
55836;DHT22;66908;50.988;4.780;2023-03-02T05:42:38;-0.10;80.40
55836;DHT22;66908;50.988;4.780;2023-03-02T05:45:06;-0.10;79.80
55836;DHT22;66908;50.988;4.780;2023-03-02T05:47:32;-0.10;79.80
55836;DHT22;66908;50.988;4.780;2023-03-02T05:49:58;-0.40;80.80
55836;DHT22;66908;50.988;4.780;2023-03-02T05:52:24;-0.50;82.10
55836;DHT22;66908;50.988;4.780;2023-03-02T05:54:50;-0.50;81.80
55836;DHT22;66908;50.988;4.780;2023-03-02T05:57:17;-0.50;81.80
55836;DHT22;66908;50.988;4.780;2023-03-02T05:59:42;-0.50;82.40
55836;DHT22;66908;50.988;4.780;2023-03-02T06:02:11;-0.60;83.10
55836;DHT22;66908;50.988;4.780;2023-03-02T06:04:37;-0.60;82.90
55836;DHT22;66908;50.988;4.780;2023-03-02T06:07:08;-0.30;81.60
55836;DHT22;66908;50.988;4.780;2023-03-02T06:09:34;-0.30;80.60
55836;DHT22;66908;50.988;4.780;2023-03-02T06:12:00;-0.40;81.10
55836;DHT22;66908;50.988;4.780;2023-03-02T06:14:26;-0.50;81.50
55836;DHT22;66908;50.988;4.780;2023-03-02T06:16:52;-0.40;81.70
55836;DHT22;66908;50.988;4.780;2023-03-02T06:19:18;-0.20;80.80
55836;DHT22;66908;50.988;4.780;2023-03-02T06:21:44;-0.20;79.90
55836;DHT22;66908;50.988;4.780;2023-03-02T06:24:10;-0.30;81.10
55836;DHT22;66908;50.988;4.780;2023-03-02T06:26:35;-0.30;80.60
55836;DHT22;66908;50.988;4.780;2023-03-02T06:29:01;-0.20;81.00
55836;DHT22;66908;50.988;4.780;2023-03-02T06:31:29;-0.20;80.20
55836;DHT22;66908;50.988;4.780;2023-03-02T06:33:55;-0.30;79.30
55836;DHT22;66908;50.988;4.780;2023-03-02T06:36:21;-0.30;78.50
55836;DHT22;66908;50.988;4.780;2023-03-02T06:38:47;-0.30;80.10
55836;DHT22;66908;50.988;4.780;2023-03-02T06:41:13;-0.50;80.70
55836;DHT22;66908;50.988;4.780;2023-03-02T06:43:38;-0.70;81.60
55836;DHT22;66908;50.988;4.780;2023-03-02T06:46:04;-0.60;82.20
55836;DHT22;66908;50.988;4.780;2023-03-02T06:48:30;-0.50;82.10
55836;DHT22;66908;50.988;4.780;2023-03-02T06:50:56;-0.30;81.40
55836;DHT22;66908;50.988;4.780;2023-03-02T06:53:21;-0.30;81.40
55836;DHT22;66908;50.988;4.780;2023-03-02T06:55:48;-0.30;81.40
55836;DHT22;66908;50.988;4.780;2023-03-02T06:58:14;-0.10;80.70
55836;DHT22;66908;50.988;4.780;2023-03-02T07:00:40;-0.20;80.70
55836;DHT22;66908;50.988;4.780;2023-03-02T07:03:06;-0.20;81.00
55836;DHT22;66908;50.988;4.780;2023-03-02T07:05:32;-0.20;81.70
55836;DHT22;66908;50.988;4.780;2023-03-02T07:07:59;-0.30;81.80
55836;DHT22;66908;50.988;4.780;2023-03-02T07:10:24;-0.40;82.60
55836;DHT22;66908;50.988;4.780;2023-03-02T07:12:50;-0.40;82.60
55836;DHT22;66908;50.988;4.780;2023-03-02T07:15:17;-0.40;82.50
55836;DHT22;66908;50.988;4.780;2023-03-02T07:17:44;-0.20;82.30
55836;DHT22;66908;50.988;4.780;2023-03-02T07:20:17;0.00;81.60
55836;DHT22;66908;50.988;4.780;2023-03-02T07:22:43;0.00;81.10
55836;DHT22;66908;50.988;4.780;2023-03-02T07:25:10;0.20;80.60
55836;DHT22;66908;50.988;4.780;2023-03-02T07:27:37;0.30;80.30
55836;DHT22;66908;50.988;4.780;2023-03-02T07:30:04;0.30;79.80
55836;DHT22;66908;50.988;4.780;2023-03-02T07:32:30;0.50;79.70
55836;DHT22;66908;50.988;4.780;2023-03-02T07:34:56;0.50;79.60
55836;DHT22;66908;50.988;4.780;2023-03-02T07:37:22;0.40;80.20
55836;DHT22;66908;50.988;4.780;2023-03-02T07:39:48;0.50;80.60
55836;DHT22;66908;50.988;4.780;2023-03-02T07:42:14;0.70;80.30
55836;DHT22;66908;50.988;4.780;2023-03-02T07:44:40;1.00;79.00
55836;DHT22;66908;50.988;4.780;2023-03-02T07:47:05;1.30;78.40
55836;DHT22;66908;50.988;4.780;2023-03-02T07:49:31;1.50;77.40
55836;DHT22;66908;50.988;4.780;2023-03-02T07:51:57;1.50;77.60
55836;DHT22;66908;50.988;4.780;2023-03-02T07:54:23;1.60;77.50
55836;DHT22;66908;50.988;4.780;2023-03-02T07:56:50;1.70;77.10
55836;DHT22;66908;50.988;4.780;2023-03-02T07:59:16;2.00;77.00
55836;DHT22;66908;50.988;4.780;2023-03-02T08:01:42;2.10;75.90
55836;DHT22;66908;50.988;4.780;2023-03-02T08:04:08;2.30;75.40
55836;DHT22;66908;50.988;4.780;2023-03-02T08:06:34;2.30;74.60
55836;DHT22;66908;50.988;4.780;2023-03-02T08:09:01;2.40;73.70
55836;DHT22;66908;50.988;4.780;2023-03-02T08:11:27;2.30;75.00
55836;DHT22;66908;50.988;4.780;2023-03-02T08:13:53;2.50;74.20
55836;DHT22;66908;50.988;4.780;2023-03-02T08:16:19;2.70;72.50
55836;DHT22;66908;50.988;4.780;2023-03-02T08:18:46;2.70;72.70
55836;DHT22;66908;50.988;4.780;2023-03-02T08:21:16;2.50;73.80
55836;DHT22;66908;50.988;4.780;2023-03-02T08:23:42;2.20;75.40
55836;DHT22;66908;50.988;4.780;2023-03-02T08:26:08;2.50;74.60
55836;DHT22;66908;50.988;4.780;2023-03-02T08:28:34;2.70;74.90
55836;DHT22;66908;50.988;4.780;2023-03-02T08:31:01;2.90;73.20
55836;DHT22;66908;50.988;4.780;2023-03-02T08:33:27;3.10;71.80
55836;DHT22;66908;50.988;4.780;2023-03-02T08:35:59;3.20;72.70
55836;DHT22;66908;50.988;4.780;2023-03-02T08:38:26;3.10;71.90
55836;DHT22;66908;50.988;4.780;2023-03-02T08:40:52;2.80;71.00
55836;DHT22;66908;50.988;4.780;2023-03-02T08:43:19;2.90;72.70
55836;DHT22;66908;50.988;4.780;2023-03-02T08:45:53;2.80;71.80
55836;DHT22;66908;50.988;4.780;2023-03-02T08:48:20;2.80;73.10
55836;DHT22;66908;50.988;4.780;2023-03-02T08:51:04;2.60;73.30
55836;DHT22;66908;50.988;4.780;2023-03-02T08:53:34;2.90;72.90
55836;DHT22;66908;50.988;4.780;2023-03-02T08:55:59;2.80;74.00
55836;DHT22;66908;50.988;4.780;2023-03-02T08:58:26;2.90;74.50
55836;DHT22;66908;50.988;4.780;2023-03-02T09:00:51;2.90;72.60
55836;DHT22;66908;50.988;4.780;2023-03-02T09:03:17;3.10;74.00
55836;DHT22;66908;50.988;4.780;2023-03-02T09:05:43;3.20;71.80
55836;DHT22;66908;50.988;4.780;2023-03-02T09:08:09;3.20;72.10
55836;DHT22;66908;50.988;4.780;2023-03-02T09:10:36;3.30;72.50
55836;DHT22;66908;50.988;4.780;2023-03-02T09:13:02;3.30;72.20
55836;DHT22;66908;50.988;4.780;2023-03-02T09:15:28;3.20;71.50
55836;DHT22;66908;50.988;4.780;2023-03-02T09:17:53;3.40;72.10
55836;DHT22;66908;50.988;4.780;2023-03-02T09:20:19;3.70;72.00
55836;DHT22;66908;50.988;4.780;2023-03-02T09:22:45;4.20;70.90
55836;DHT22;66908;50.988;4.780;2023-03-02T09:25:18;4.10;68.80
55836;DHT22;66908;50.988;4.780;2023-03-02T09:27:45;3.90;70.40
55836;DHT22;66908;50.988;4.780;2023-03-02T09:30:11;3.60;72.50
55836;DHT22;66908;50.988;4.780;2023-03-02T09:32:38;3.60;71.70
55836;DHT22;66908;50.988;4.780;2023-03-02T09:35:04;3.80;72.20
55836;DHT22;66908;50.988;4.780;2023-03-02T09:37:30;3.70;72.30
55836;DHT22;66908;50.988;4.780;2023-03-02T09:39:55;3.70;70.50
55836;DHT22;66908;50.988;4.780;2023-03-02T09:42:44;3.70;71.00
55836;DHT22;66908;50.988;4.780;2023-03-02T09:53:36;4.00;70.60
55836;DHT22;66908;50.988;4.780;2023-03-02T09:56:12;4.10;69.50
55836;DHT22;66908;50.988;4.780;2023-03-02T09:58:38;4.30;69.70
55836;DHT22;66908;50.988;4.780;2023-03-02T10:01:12;4.90;67.90
55836;DHT22;66908;50.988;4.780;2023-03-02T10:03:57;5.00;66.00
55836;DHT22;66908;50.988;4.780;2023-03-02T10:06:24;4.70;67.60
55836;DHT22;66908;50.988;4.780;2023-03-02T10:08:51;4.40;70.30
55836;DHT22;66908;50.988;4.780;2023-03-02T10:11:33;4.70;68.20
55836;DHT22;66908;50.988;4.780;2023-03-02T10:14:17;4.80;67.30
55836;DHT22;66908;50.988;4.780;2023-03-02T10:19:28;5.30;68.30
55836;DHT22;66908;50.988;4.780;2023-03-02T10:22:13;5.20;66.30
55836;DHT22;66908;50.988;4.780;2023-03-02T10:24:51;5.20;65.70
55836;DHT22;66908;50.988;4.780;2023-03-02T10:32:49;5.40;65.00
55836;DHT22;66908;50.988;4.780;2023-03-02T10:35:18;5.20;66.50
55836;DHT22;66908;50.988;4.780;2023-03-02T10:37:46;5.40;64.70
55836;DHT22;66908;50.988;4.780;2023-03-02T10:43:19;5.70;64.70
55836;DHT22;66908;50.988;4.780;2023-03-02T10:45:57;5.60;65.80
55836;DHT22;66908;50.988;4.780;2023-03-02T10:48:23;5.70;65.60
55836;DHT22;66908;50.988;4.780;2023-03-02T10:50:57;5.50;65.50
55836;DHT22;66908;50.988;4.780;2023-03-02T10:53:23;5.80;65.80
55836;DHT22;66908;50.988;4.780;2023-03-02T10:55:51;6.20;64.10
55836;DHT22;66908;50.988;4.780;2023-03-02T10:58:29;6.60;63.50
55836;DHT22;66908;50.988;4.780;2023-03-02T11:01:03;6.50;62.00
55836;DHT22;66908;50.988;4.780;2023-03-02T11:03:30;6.30;60.60
55836;DHT22;66908;50.988;4.780;2023-03-02T11:05:57;6.60;60.20
55836;DHT22;66908;50.988;4.780;2023-03-02T11:08:25;6.90;59.70
55836;DHT22;66908;50.988;4.780;2023-03-02T11:10:54;6.70;59.80
55836;DHT22;66908;50.988;4.780;2023-03-02T11:13:34;6.70;61.10
55836;DHT22;66908;50.988;4.780;2023-03-02T11:16:02;6.70;60.60
55836;DHT22;66908;50.988;4.780;2023-03-02T11:18:42;7.00;58.40
55836;DHT22;66908;50.988;4.780;2023-03-02T11:21:10;6.80;59.90
55836;DHT22;66908;50.988;4.780;2023-03-02T11:26:26;6.90;61.20
55836;DHT22;66908;50.988;4.780;2023-03-02T11:29:13;7.00;59.30
55836;DHT22;66908;50.988;4.780;2023-03-02T11:31:50;7.10;59.10
55836;DHT22;66908;50.988;4.780;2023-03-02T11:37:13;7.90;57.60
55836;DHT22;66908;50.988;4.780;2023-03-02T11:42:30;7.90;58.90
55836;DHT22;66908;50.988;4.780;2023-03-02T11:44:59;7.60;58.10
55836;DHT22;66908;50.988;4.780;2023-03-02T11:47:25;7.30;60.00
55836;DHT22;66908;50.988;4.780;2023-03-02T11:49:55;7.60;61.60
55836;DHT22;66908;50.988;4.780;2023-03-02T11:52:27;7.60;58.30
55836;DHT22;66908;50.988;4.780;2023-03-02T11:57:35;8.00;59.20
55836;DHT22;66908;50.988;4.780;2023-03-02T12:00:45;8.50;56.10
55836;DHT22;66908;50.988;4.780;2023-03-02T12:08:41;8.50;56.30
55836;DHT22;66908;50.988;4.780;2023-03-02T12:11:30;8.30;56.60
55836;DHT22;66908;50.988;4.780;2023-03-02T12:14:01;8.30;57.10
55836;DHT22;66908;50.988;4.780;2023-03-02T12:16:39;8.40;56.60
55836;DHT22;66908;50.988;4.780;2023-03-02T12:21:41;8.40;57.90
55836;DHT22;66908;50.988;4.780;2023-03-02T12:24:25;8.30;56.60
55836;DHT22;66908;50.988;4.780;2023-03-02T12:29:47;9.00;54.70
55836;DHT22;66908;50.988;4.780;2023-03-02T12:32:28;9.30;55.20
55836;DHT22;66908;50.988;4.780;2023-03-02T12:35:10;9.10;55.40
55836;DHT22;66908;50.988;4.780;2023-03-02T12:37:45;9.00;54.80
55836;DHT22;66908;50.988;4.780;2023-03-02T12:43:16;8.90;55.20
55836;DHT22;66908;50.988;4.780;2023-03-02T12:51:24;8.90;56.00
55836;DHT22;66908;50.988;4.780;2023-03-02T12:54:11;9.20;56.30
55836;DHT22;66908;50.988;4.780;2023-03-02T12:56:37;9.50;55.40
55836;DHT22;66908;50.988;4.780;2023-03-02T12:59:03;9.50;54.40
55836;DHT22;66908;50.988;4.780;2023-03-02T13:01:31;9.60;54.10
55836;DHT22;66908;50.988;4.780;2023-03-02T13:03:58;9.60;55.60
55836;DHT22;66908;50.988;4.780;2023-03-02T13:06:26;9.80;55.30
55836;DHT22;66908;50.988;4.780;2023-03-02T13:08:55;9.40;55.10
55836;DHT22;66908;50.988;4.780;2023-03-02T13:11:32;9.20;56.00
55836;DHT22;66908;50.988;4.780;2023-03-02T13:13:59;9.40;55.90
55836;DHT22;66908;50.988;4.780;2023-03-02T13:16:32;9.10;55.40
55836;DHT22;66908;50.988;4.780;2023-03-02T13:19:02;9.30;56.40
55836;DHT22;66908;50.988;4.780;2023-03-02T13:21:32;9.70;55.70
55836;DHT22;66908;50.988;4.780;2023-03-02T13:23:58;10.30;53.90
55836;DHT22;66908;50.988;4.780;2023-03-02T13:26:29;10.00;53.90
55836;DHT22;66908;50.988;4.780;2023-03-02T13:29:05;9.90;55.10
55836;DHT22;66908;50.988;4.780;2023-03-02T13:31:33;9.70;54.80
55836;DHT22;66908;50.988;4.780;2023-03-02T13:33:58;9.60;55.40
55836;DHT22;66908;50.988;4.780;2023-03-02T13:36:44;9.60;55.30
55836;DHT22;66908;50.988;4.780;2023-03-02T13:39:36;9.70;54.70
55836;DHT22;66908;50.988;4.780;2023-03-02T13:42:02;9.70;56.30
55836;DHT22;66908;50.988;4.780;2023-03-02T13:44:33;9.70;55.70
55836;DHT22;66908;50.988;4.780;2023-03-02T13:47:00;9.80;55.60
55836;DHT22;66908;50.988;4.780;2023-03-02T13:49:34;9.70;54.60
55836;DHT22;66908;50.988;4.780;2023-03-02T13:54:49;9.90;54.80
55836;DHT22;66908;50.988;4.780;2023-03-02T13:57:22;10.10;53.70
55836;DHT22;66908;50.988;4.780;2023-03-02T13:59:49;10.10;54.00
55836;DHT22;66908;50.988;4.780;2023-03-02T14:02:24;10.30;54.00
55836;DHT22;66908;50.988;4.780;2023-03-02T14:04:50;10.80;53.20
55836;DHT22;66908;50.988;4.780;2023-03-02T14:07:16;10.50;52.90
55836;DHT22;66908;50.988;4.780;2023-03-02T14:09:42;10.50;52.50
55836;DHT22;66908;50.988;4.780;2023-03-02T14:12:21;10.70;52.30
55836;DHT22;66908;50.988;4.780;2023-03-02T14:14:49;10.70;51.90
55836;DHT22;66908;50.988;4.780;2023-03-02T14:17:20;10.90;52.90
55836;DHT22;66908;50.988;4.780;2023-03-02T14:19:46;11.30;51.90
55836;DHT22;66908;50.988;4.780;2023-03-02T14:22:20;11.70;49.90
55836;DHT22;66908;50.988;4.780;2023-03-02T14:24:46;11.50;50.40
55836;DHT22;66908;50.988;4.780;2023-03-02T14:27:16;11.60;51.00
55836;DHT22;66908;50.988;4.780;2023-03-02T14:29:43;11.50;50.90
55836;DHT22;66908;50.988;4.780;2023-03-02T14:32:11;11.30;51.40
55836;DHT22;66908;50.988;4.780;2023-03-02T14:34:41;11.60;51.10
55836;DHT22;66908;50.988;4.780;2023-03-02T14:37:13;11.90;49.80
55836;DHT22;66908;50.988;4.780;2023-03-02T14:39:45;11.60;50.10
55836;DHT22;66908;50.988;4.780;2023-03-02T14:42:14;11.70;50.40
55836;DHT22;66908;50.988;4.780;2023-03-02T14:44:41;11.70;49.90
55836;DHT22;66908;50.988;4.780;2023-03-02T14:47:07;11.20;51.50
55836;DHT22;66908;50.988;4.780;2023-03-02T14:49:35;11.10;51.90
55836;DHT22;66908;50.988;4.780;2023-03-02T14:54:30;10.70;53.30
55836;DHT22;66908;50.988;4.780;2023-03-02T14:56:59;10.70;52.40
55836;DHT22;66908;50.988;4.780;2023-03-02T14:59:26;10.90;52.40
55836;DHT22;66908;50.988;4.780;2023-03-02T15:01:51;11.00;52.70
55836;DHT22;66908;50.988;4.780;2023-03-02T15:04:17;10.90;52.20
55836;DHT22;66908;50.988;4.780;2023-03-02T15:06:46;11.00;52.50
55836;DHT22;66908;50.988;4.780;2023-03-02T15:09:12;11.10;51.90
55836;DHT22;66908;50.988;4.780;2023-03-02T15:11:37;11.10;52.90
55836;DHT22;66908;50.988;4.780;2023-03-02T15:14:03;11.20;51.50
55836;DHT22;66908;50.988;4.780;2023-03-02T15:16:29;11.10;52.50
55836;DHT22;66908;50.988;4.780;2023-03-02T15:18:54;11.20;51.80
55836;DHT22;66908;50.988;4.780;2023-03-02T15:21:22;11.20;52.00
55836;DHT22;66908;50.988;4.780;2023-03-02T15:23:48;11.40;51.40
55836;DHT22;66908;50.988;4.780;2023-03-02T15:26:16;10.90;53.10
55836;DHT22;66908;50.988;4.780;2023-03-02T15:28:42;10.50;54.10
55836;DHT22;66908;50.988;4.780;2023-03-02T15:31:14;10.40;54.10
55836;DHT22;66908;50.988;4.780;2023-03-02T15:33:41;10.20;54.30
55836;DHT22;66908;50.988;4.780;2023-03-02T15:36:07;10.30;54.00
55836;DHT22;66908;50.988;4.780;2023-03-02T15:38:34;10.50;54.40
55836;DHT22;66908;50.988;4.780;2023-03-02T15:41:11;10.50;53.10
55836;DHT22;66908;50.988;4.780;2023-03-02T15:43:37;10.40;53.20
55836;DHT22;66908;50.988;4.780;2023-03-02T15:46:04;10.50;54.40
55836;DHT22;66908;50.988;4.780;2023-03-02T15:48:30;10.60;53.20
55836;DHT22;66908;50.988;4.780;2023-03-02T15:51:01;10.30;54.20
55836;DHT22;66908;50.988;4.780;2023-03-02T15:53:28;10.30;54.30
55836;DHT22;66908;50.988;4.780;2023-03-02T15:55:54;10.40;54.40
55836;DHT22;66908;50.988;4.780;2023-03-02T15:58:20;10.50;53.30
55836;DHT22;66908;50.988;4.780;2023-03-02T16:00:49;10.50;53.70
55836;DHT22;66908;50.988;4.780;2023-03-02T16:03:15;10.30;54.10
55836;DHT22;66908;50.988;4.780;2023-03-02T16:05:41;10.10;54.60
55836;DHT22;66908;50.988;4.780;2023-03-02T16:08:07;10.20;54.00
55836;DHT22;66908;50.988;4.780;2023-03-02T16:10:33;10.00;54.60
55836;DHT22;66908;50.988;4.780;2023-03-02T16:13:04;10.10;54.00
55836;DHT22;66908;50.988;4.780;2023-03-02T16:15:35;10.10;53.70
55836;DHT22;66908;50.988;4.780;2023-03-02T16:18:07;10.10;54.00
55836;DHT22;66908;50.988;4.780;2023-03-02T16:20:34;10.20;54.00
55836;DHT22;66908;50.988;4.780;2023-03-02T16:23:01;10.00;54.00
55836;DHT22;66908;50.988;4.780;2023-03-02T16:25:34;10.00;54.30
55836;DHT22;66908;50.988;4.780;2023-03-02T16:28:01;9.90;54.10
55836;DHT22;66908;50.988;4.780;2023-03-02T16:30:28;9.90;54.60
55836;DHT22;66908;50.988;4.780;2023-03-02T16:32:58;9.80;54.50
55836;DHT22;66908;50.988;4.780;2023-03-02T16:35:25;9.80;55.00
55836;DHT22;66908;50.988;4.780;2023-03-02T16:37:51;9.60;54.80
55836;DHT22;66908;50.988;4.780;2023-03-02T16:40:17;9.60;54.40
55836;DHT22;66908;50.988;4.780;2023-03-02T16:42:43;9.60;54.50
55836;DHT22;66908;50.988;4.780;2023-03-02T16:45:09;9.60;54.20
55836;DHT22;66908;50.988;4.780;2023-03-02T16:47:34;9.60;53.80
55836;DHT22;66908;50.988;4.780;2023-03-02T16:50:01;9.50;54.40